createdAt,value
2022-11-14T00:01:26.660Z,101908.22
2022-11-14T00:05:47.591Z,101906.50
2022-11-14T00:10:08.291Z,101900.44
2022-11-14T00:14:28.598Z,101898.63
2022-11-14T00:18:49.499Z,101905.47
2022-11-14T00:23:09.760Z,101905.38
2022-11-14T00:27:30.247Z,101897.38
2022-11-14T00:31:51.405Z,101891.25
2022-11-14T00:36:12.138Z,101890.22
2022-11-14T00:40:32.272Z,101886.53
2022-11-14T00:44:53.040Z,101878.63
2022-11-14T00:49:13.115Z,101879.03
2022-11-14T00:53:33.667Z,101879.88
2022-11-14T00:57:53.901Z,101880.81
2022-11-14T01:02:14.411Z,101873.50
2022-11-14T01:06:34.389Z,101873.28
2022-11-14T01:10:54.879Z,101862.78
2022-11-14T01:15:14.972Z,101859.25
2022-11-14T01:19:35.559Z,101867.06
2022-11-14T01:23:55.568Z,101853.19
2022-11-14T01:28:18.402Z,101852.03
2022-11-14T01:32:38.449Z,101849.78
2022-11-14T01:36:59.216Z,101841.84
2022-11-14T01:41:20.155Z,101845.44
2022-11-14T01:45:55.629Z,101850.81
2022-11-14T01:50:16.280Z,101840.28
2022-11-14T01:54:40.028Z,101841.97
2022-11-14T01:59:09.039Z,101830.88
2022-11-14T02:03:29.805Z,101834.94
2022-11-14T02:07:50.043Z,101833.63
2022-11-14T02:12:13.322Z,101826.63
2022-11-14T02:16:34.315Z,101817.03
2022-11-14T02:20:54.661Z,101829.81
2022-11-14T02:25:18.330Z,101820.19
2022-11-14T02:29:38.893Z,101820.44
2022-11-14T02:33:59.271Z,101814.06
2022-11-14T02:38:19.766Z,101810.28
2022-11-14T02:42:39.879Z,101807.72
2022-11-14T02:47:00.364Z,101810.38
2022-11-14T02:51:20.418Z,101800.13
2022-11-14T02:55:41.230Z,101792.56
2022-11-14T03:00:01.345Z,101790.72
2022-11-14T03:04:21.700Z,101796.63
2022-11-14T03:08:41.824Z,101797.50
2022-11-14T03:13:02.496Z,101782.69
2022-11-14T03:17:24.664Z,101781.63
2022-11-14T03:21:44.868Z,101784.41
2022-11-14T03:26:08.084Z,101777.13
2022-11-14T03:30:28.333Z,101779.75
2022-11-14T03:34:48.341Z,101781.66
2022-11-14T03:39:09.230Z,101778.09
2022-11-14T03:43:34.556Z,101783.34
2022-11-14T03:47:55.533Z,101772.63
2022-11-14T03:52:15.810Z,101768.25
2022-11-14T03:56:36.911Z,101762.47
2022-11-14T04:00:57.236Z,101761.03
2022-11-14T04:05:17.680Z,101760.94
2022-11-14T04:09:37.849Z,101765.94
2022-11-14T04:13:58.468Z,101752.16
2022-11-14T04:18:18.852Z,101759.03
2022-11-14T04:22:40.075Z,101763.47
2022-11-14T04:27:00.387Z,101769.44
2022-11-14T04:31:20.917Z,101771.47
2022-11-14T04:35:41.187Z,101755.69
2022-11-14T04:40:02.811Z,101759.09
2022-11-14T04:44:23.132Z,101751.66
2022-11-14T04:48:43.206Z,101758.09
2022-11-14T04:53:03.243Z,101753.78
2022-11-14T04:57:23.637Z,101737.72
2022-11-14T05:01:43.701Z,101739.72
2022-11-14T05:06:04.543Z,101739.72
2022-11-14T05:10:24.846Z,101751.22
2022-11-14T05:14:45.430Z,101741.63
2022-11-14T05:19:05.513Z,101745.13
2022-11-14T05:23:26.424Z,101730.97
2022-11-14T05:27:46.502Z,101739.91
2022-11-14T05:32:07.093Z,101727.66
2022-11-14T05:36:27.185Z,101736.06
2022-11-14T05:40:47.802Z,101732.22
2022-11-14T05:45:08.480Z,101733.91
2022-11-14T05:49:29.211Z,101733.59
2022-11-14T05:53:49.199Z,101739.94
2022-11-14T05:58:09.757Z,101737.50
2022-11-14T06:02:30.136Z,101743.41
2022-11-14T06:06:50.605Z,101745.94
2022-11-14T06:11:16.906Z,101739.41
2022-11-14T06:15:37.258Z,101734.75
2022-11-14T06:19:57.335Z,101740.28
2022-11-14T06:24:17.955Z,101738.97
2022-11-14T06:28:38.033Z,101748.59
2022-11-14T06:33:01.423Z,101750.16
2022-11-14T06:37:21.594Z,101740.72
2022-11-14T06:41:42.155Z,101743.81
2022-11-14T06:46:03.132Z,101752.81
2022-11-14T06:50:23.451Z,101745.66
2022-11-14T06:54:43.702Z,101746.78
2022-11-14T06:59:04.260Z,101753.75
2022-11-14T07:03:24.316Z,101742.69
2022-11-14T07:07:45.121Z,101732.00
2022-11-14T07:12:05.669Z,101739.09
2022-11-14T07:16:31.722Z,101735.41
2022-11-14T07:21:01.227Z,101729.28
2022-11-14T07:25:22.778Z,101741.94
2022-11-14T07:29:42.975Z,101738.53
2022-11-14T07:34:03.687Z,101733.06
2022-11-14T07:38:24.453Z,101732.44
2022-11-14T07:42:45.132Z,101737.31
2022-11-14T07:47:05.358Z,101724.97
2022-11-14T07:51:25.904Z,101733.16
2022-11-14T07:55:45.904Z,101736.75
2022-11-14T08:00:07.082Z,101742.00
2022-11-14T08:04:27.461Z,101737.91
2022-11-14T08:08:48.002Z,101746.19
2022-11-14T08:13:31.109Z,101735.69
2022-11-14T08:17:48.761Z,101724.16
2022-11-14T08:22:08.948Z,101712.88
2022-11-14T08:26:34.125Z,101707.69
2022-11-14T08:31:00.229Z,101703.56
2022-11-14T08:35:20.765Z,101708.53
2022-11-14T08:39:40.819Z,101699.69
2022-11-14T08:44:01.829Z,101690.53
2022-11-14T08:48:22.167Z,101685.75
2022-11-14T08:52:42.807Z,101683.28
2022-11-14T08:57:03.081Z,101681.88
2022-11-14T09:01:23.145Z,101669.53
2022-11-14T09:05:43.376Z,101681.97
2022-11-14T09:10:04.536Z,101670.31
2022-11-14T09:14:24.902Z,101671.13
2022-11-14T09:18:45.446Z,101653.56
2022-11-14T09:23:06.013Z,101649.34
2022-11-14T09:27:27.606Z,101649.28
2022-11-14T09:31:48.195Z,101643.59
2022-11-14T09:36:11.331Z,101637.22
2022-11-14T09:40:43.574Z,101641.59
2022-11-14T09:45:10.662Z,101631.34
2022-11-14T09:49:46.250Z,101627.34
2022-11-14T09:54:22.438Z,101625.78
2022-11-14T09:58:43.061Z,101622.63
2022-11-14T10:03:11.624Z,101617.41
2022-11-14T10:07:51.492Z,101604.66
2022-11-14T10:12:21.473Z,101620.53
2022-11-14T10:17:05.238Z,101602.59
2022-11-14T10:21:51.437Z,101597.53
2022-11-14T10:26:24.578Z,101588.94
2022-11-14T10:31:07.521Z,101588.84
2022-11-14T10:35:42.485Z,101593.41
2022-11-14T10:40:17.518Z,101599.41
2022-11-14T10:44:53.917Z,101580.16
2022-11-14T10:49:22.544Z,101568.03
2022-11-14T10:54:23.836Z,101558.16
2022-11-14T10:58:48.888Z,101549.72
2022-11-14T11:03:10.045Z,101545.69
2022-11-14T11:07:49.416Z,101542.44
2022-11-14T11:12:16.523Z,101546.78
2022-11-14T11:16:37.502Z,101545.34
2022-11-14T11:21:07.098Z,101550.19
2022-11-14T11:25:29.815Z,101541.47
2022-11-14T11:30:19.005Z,101541.47
2022-11-14T11:34:39.739Z,101534.50
2022-11-14T11:39:00.177Z,101516.59
2022-11-14T11:43:52.477Z,101507.84
2022-11-14T11:48:23.128Z,101509.59
2022-11-14T11:53:17.569Z,101493.16
2022-11-14T11:58:06.738Z,101487.81
2022-11-14T12:02:28.578Z,101469.66
2022-11-14T12:07:14.792Z,101462.69
2022-11-14T12:11:40.288Z,101462.59
2022-11-14T12:16:27.455Z,101454.72
2022-11-14T12:21:04.934Z,101466.38
2022-11-14T12:25:46.603Z,101455.88
2022-11-14T12:30:18.150Z,101458.16
2022-11-14T12:34:42.114Z,101457.44
2022-11-14T12:39:03.331Z,101456.56
2022-11-14T12:43:36.837Z,101458.16
2022-11-14T12:48:26.083Z,101462.44
2022-11-14T12:52:54.962Z,101461.81
2022-11-14T12:57:46.092Z,101459.31
2022-11-14T13:02:52.092Z,101461.94
2022-11-14T13:07:32.983Z,101464.19
2022-11-14T13:12:12.856Z,101475.63
2022-11-14T13:16:52.160Z,101472.56
2022-11-14T13:21:46.252Z,101467.63
2022-11-14T13:26:10.307Z,101457.13
2022-11-14T13:31:07.973Z,101465.41
2022-11-14T13:35:48.856Z,101462.09
2022-11-14T13:40:23.475Z,101450.91
2022-11-14T13:45:07.815Z,101456.34
2022-11-14T13:49:54.175Z,101454.19
2022-11-14T13:54:18.231Z,101458.22
2022-11-14T13:59:00.741Z,101458.00
2022-11-14T14:03:36.526Z,101450.41
2022-11-14T14:08:16.694Z,101439.81
2022-11-14T14:13:01.877Z,101445.75
2022-11-14T14:18:13.323Z,101443.59
2022-11-14T14:22:46.431Z,101433.28
2022-11-14T14:27:14.772Z,101416.66
2022-11-14T14:31:41.103Z,101412.59
2022-11-14T14:36:01.540Z,101402.94
2022-11-14T14:40:34.572Z,101397.19
2022-11-14T14:44:56.406Z,101392.63
2022-11-14T14:49:23.408Z,101391.09
2022-11-14T14:53:52.588Z,101392.16
2022-11-14T14:58:26.290Z,101388.44
2022-11-14T15:02:46.687Z,101388.03
2022-11-14T15:07:21.294Z,101389.06
2022-11-14T15:11:44.386Z,101379.72
2022-11-14T15:16:06.485Z,101379.53
2022-11-14T15:20:29.204Z,101375.81
2022-11-14T15:25:11.644Z,101375.84
2022-11-14T15:29:33.155Z,101362.91
2022-11-14T15:34:06.407Z,101364.31
2022-11-14T15:44:01.731Z,101349.22
2022-11-14T15:48:21.961Z,101345.44
2022-11-14T15:52:59.032Z,101340.22
2022-11-14T15:57:19.243Z,101333.72
2022-11-14T16:01:40.364Z,101319.03
2022-11-14T16:06:00.650Z,101318.09
2022-11-14T16:10:26.454Z,101319.03
2022-11-14T16:14:47.014Z,101308.50
2022-11-14T16:19:07.837Z,101317.09
2022-11-14T16:23:28.386Z,101303.50
2022-11-14T16:27:49.120Z,101305.81
2022-11-14T16:32:11.042Z,101298.72
2022-11-14T16:36:32.098Z,101297.13
2022-11-14T16:40:52.537Z,101293.03
2022-11-14T16:45:12.728Z,101290.75
2022-11-14T16:49:33.316Z,101290.63
2022-11-14T16:53:56.772Z,101292.00
2022-11-14T16:58:17.187Z,101287.22
2022-11-14T17:02:39.762Z,101284.66
2022-11-14T17:07:00.123Z,101286.94
2022-11-14T17:11:21.632Z,101278.03
2022-11-14T17:15:41.823Z,101283.47
2022-11-14T17:20:02.432Z,101280.22
2022-11-14T17:24:25.994Z,101273.72
2022-11-14T17:28:49.172Z,101269.97
2022-11-14T17:33:09.751Z,101275.84
2022-11-14T17:37:30.367Z,101270.44
2022-11-14T17:41:50.199Z,101262.47
2022-11-14T17:46:15.927Z,101269.19
2022-11-14T17:50:39.364Z,101268.03
2022-11-14T17:54:59.847Z,101260.34
2022-11-14T17:59:20.467Z,101255.13
2022-11-14T18:03:41.161Z,101253.41
2022-11-14T18:08:01.217Z,101252.66
2022-11-14T18:12:21.635Z,101255.72
2022-11-14T18:17:10.461Z,101248.88
2022-11-14T18:21:24.625Z,101253.56
2022-11-14T18:25:45.022Z,101254.59
2022-11-14T18:30:26.715Z,101249.78
2022-11-14T18:34:46.941Z,101249.13
2022-11-14T18:39:07.653Z,101233.72
2022-11-14T18:43:32.052Z,101235.72
2022-11-14T18:47:52.663Z,101231.47
2022-11-14T18:52:17.406Z,101235.56
2022-11-14T18:56:38.671Z,101227.66
2022-11-14T19:01:14.798Z,101216.72
2022-11-14T19:05:35.947Z,101221.41
2022-11-14T19:09:56.490Z,101221.84
2022-11-14T19:14:17.804Z,101216.03
2022-11-14T19:18:38.208Z,101206.69
2022-11-14T19:22:58.817Z,101201.66
2022-11-14T19:27:18.899Z,101198.00
2022-11-14T19:31:40.785Z,101193.22
2022-11-14T19:36:13.382Z,101187.91
2022-11-14T19:40:36.509Z,101186.97
2022-11-14T19:44:56.567Z,101185.94
2022-11-14T19:49:17.156Z,101178.59
2022-11-14T19:53:39.176Z,101172.88
2022-11-14T19:57:59.348Z,101167.19
2022-11-14T20:02:19.681Z,101167.00
2022-11-14T20:06:41.571Z,101159.16
2022-11-14T20:11:03.805Z,101159.81
2022-11-14T20:15:24.543Z,101158.19
2022-11-14T20:19:45.322Z,101148.72
2022-11-14T20:24:06.318Z,101143.25
2022-11-14T20:28:26.719Z,101145.75
2022-11-14T20:32:47.332Z,101136.81
2022-11-14T20:37:11.767Z,101131.63
2022-11-14T20:41:32.866Z,101117.34
2022-11-14T20:46:00.816Z,101112.72
2022-11-14T20:50:21.615Z,101110.22
2022-11-14T20:54:41.760Z,101109.50
2022-11-14T20:59:02.477Z,101109.56
2022-11-14T21:03:23.101Z,101097.25
2022-11-14T21:07:43.855Z,101088.59
2022-11-14T21:12:04.083Z,101086.81
2022-11-14T21:16:29.695Z,101074.06
2022-11-14T21:20:57.884Z,101076.31
2022-11-14T21:25:18.325Z,101070.38
2022-11-14T21:29:38.743Z,101064.38
2022-11-14T21:34:01.633Z,101061.84
2022-11-14T21:38:21.885Z,101063.97
2022-11-14T21:42:42.899Z,101058.50
2022-11-14T21:47:03.091Z,101062.78
2022-11-14T21:51:26.482Z,101049.16
2022-11-14T21:55:47.311Z,101042.75
2022-11-14T22:00:08.201Z,101048.97
2022-11-14T22:04:29.060Z,101040.59
2022-11-14T22:08:53.098Z,101044.00
2022-11-14T22:13:13.416Z,101039.25
2022-11-14T22:17:33.499Z,101029.53
2022-11-14T22:21:54.454Z,101029.25
2022-11-14T22:26:14.985Z,101028.22
2022-11-14T22:30:35.193Z,101033.25
2022-11-14T22:34:55.425Z,101034.63
2022-11-14T22:39:16.531Z,101019.56
2022-11-14T22:43:36.746Z,101021.19
2022-11-14T22:47:58.523Z,101016.16
2022-11-14T22:52:18.681Z,101015.69
2022-11-14T22:56:39.330Z,101013.34
2022-11-14T23:00:59.858Z,101006.66
2022-11-14T23:05:20.244Z,101007.41
2022-11-14T23:09:40.479Z,100998.78
2022-11-14T23:14:01.024Z,101009.22
2022-11-14T23:18:23.758Z,100992.16
2022-11-14T23:22:44.248Z,100999.88
2022-11-14T23:27:04.619Z,100997.91
2022-11-14T23:31:25.671Z,100987.00
2022-11-14T23:35:45.825Z,100989.28
2022-11-14T23:40:07.095Z,100995.03
2022-11-14T23:44:27.506Z,100988.91
2022-11-14T23:48:48.195Z,100990.41
2022-11-14T23:53:08.245Z,100984.56
2022-11-14T23:57:28.760Z,100980.25
